createdAt,value
2018-10-19T00:00:22.138Z,11.65
2018-10-19T00:01:22.374Z,11.73
2018-10-19T00:02:23.663Z,11.71
2018-10-19T00:03:24.181Z,11.78
2018-10-19T00:04:25.531Z,11.76
2018-10-19T00:05:26.323Z,11.78
2018-10-19T00:06:27.398Z,11.77
2018-10-19T00:07:28.193Z,11.74
2018-10-19T00:08:28.713Z,11.8
2018-10-19T00:09:29.228Z,11.8
2018-10-19T00:10:29.748Z,11.76
2018-10-19T00:11:30.822Z,11.8
2018-10-19T00:12:31.623Z,11.76
2018-10-19T00:13:32.412Z,11.85
2018-10-19T00:14:32.927Z,11.71
2018-10-19T00:15:34.995Z,11.77
2018-10-19T00:16:34.786Z,11.74
2018-10-19T00:17:36.301Z,11.68
2018-10-19T00:18:37.815Z,11.74
2018-10-19T00:19:38.889Z,11.65
2018-10-19T00:20:40.682Z,11.76
2018-10-19T00:21:41.479Z,11.68
2018-10-19T00:22:42.450Z,11.63
2018-10-19T00:23:43.355Z,11.58
2018-10-19T00:24:44.151Z,11.6
2018-10-19T00:25:44.218Z,11.52
2018-10-19T00:26:45.566Z,11.52
2018-10-19T00:27:45.360Z,11.31
2018-10-19T00:28:46.152Z,11.33
2018-10-19T00:29:48.261Z,11.35
2018-10-19T00:30:48.615Z,11.45
2018-10-19T00:31:48.965Z,11.37
2018-10-19T00:32:49.793Z,11.37
2018-10-19T00:33:50.419Z,11.34
2018-10-19T00:34:50.658Z,11.33
2018-10-19T00:35:52.169Z,11.31
2018-10-19T00:36:53.200Z,11.33
2018-10-19T00:37:53.336Z,11.31
2018-10-19T00:38:53.720Z,11.26
2018-10-19T00:39:54.490Z,11.31
2018-10-19T00:40:55.343Z,11.35
2018-10-19T00:41:56.475Z,11.41
2018-10-19T00:42:57.001Z,11.37
2018-10-19T00:43:58.794Z,11.38
2018-10-19T00:45:00.287Z,11.3
2018-10-19T00:45:59.902Z,11.34
2018-10-19T00:47:01.476Z,11.19
2018-10-19T00:48:01.448Z,11.19
2018-10-19T00:49:01.796Z,11.25
2018-10-19T00:50:02.869Z,11.18
2018-10-19T00:51:04.163Z,11.12
2018-10-19T00:52:04.864Z,11.13
2018-10-19T00:53:06.253Z,11.16
2018-10-19T00:54:06.501Z,11.1
2018-10-19T00:55:07.291Z,11.1
2018-10-19T00:56:07.802Z,11.22
2018-10-19T00:57:10.064Z,11.25
2018-10-19T00:58:10.643Z,11.26
2018-10-19T00:59:12.833Z,11.2
2018-10-19T01:00:12.249Z,11.26
2018-10-19T01:01:13.323Z,11.34
2018-10-19T01:02:14.114Z,11.3
2018-10-19T01:03:16.263Z,11.26
2018-10-19T01:04:16.959Z,11.31
2018-10-19T01:05:17.730Z,11.31
2018-10-19T01:06:18.276Z,11.34
2018-10-19T01:07:18.899Z,11.38
2018-10-19T01:08:19.411Z,11.26
2018-10-19T01:09:20.035Z,11.18
2018-10-19T01:10:21.385Z,11.33
2018-10-19T01:11:22.180Z,11.34
2018-10-19T01:12:22.975Z,11.34
2018-10-19T01:13:23.969Z,11.3
2018-10-19T01:14:24.765Z,11.23
2018-10-19T01:15:25.281Z,11.33
2018-10-19T01:16:26.519Z,11.2
2018-10-19T01:17:27.358Z,11.3
2018-10-19T01:18:27.873Z,11.19
2018-10-19T01:19:29.778Z,11.23
2018-10-19T01:20:29.847Z,11.26
2018-10-19T01:21:30.932Z,11.26
2018-10-19T01:22:31.011Z,11.22
2018-10-19T01:23:32.215Z,11.31
2018-10-19T01:24:33.561Z,11.22
2018-10-19T01:25:34.196Z,11.34
2018-10-19T01:26:34.719Z,11.35
2018-10-19T01:27:35.619Z,11.35
2018-10-19T01:28:35.970Z,11.31
2018-10-19T01:29:37.088Z,11.37
2018-10-19T01:30:38.161Z,11.3
2018-10-19T01:31:38.675Z,11.31
2018-10-19T01:32:39.745Z,11.27
2018-10-19T01:33:39.853Z,11.25
2018-10-19T01:34:40.920Z,11.37
2018-10-19T01:35:40.715Z,11.33
2018-10-19T01:36:41.649Z,11.31
2018-10-19T01:37:42.166Z,11.38
2018-10-19T01:38:43.517Z,11.31
2018-10-19T01:39:44.591Z,11.27
2018-10-19T01:40:44.824Z,11.2
2018-10-19T01:41:45.334Z,11.16
2018-10-19T01:42:46.406Z,11.15
2018-10-19T01:43:47.372Z,11.05
2018-10-19T01:44:48.721Z,11.12
2018-10-19T01:45:49.529Z,11.08
2018-10-19T01:46:50.768Z,11.12
2018-10-19T01:47:52.116Z,11.04
2018-10-19T01:48:52.464Z,11.07
2018-10-19T01:49:52.705Z,11.1
2018-10-19T01:50:53.892Z,11.13
2018-10-19T01:51:54.944Z,11.04
2018-10-19T01:52:56.096Z,11.04
2018-10-19T01:53:56.726Z,11.05
2018-10-19T01:54:57.520Z,11.05
2018-10-19T01:55:58.036Z,10.95
2018-10-19T01:57:00.195Z,11
2018-10-19T01:58:00.981Z,10.82
2018-10-19T01:59:02.267Z,10.95
2018-10-19T02:00:02.859Z,10.95
2018-10-19T02:01:02.936Z,10.9
2018-10-19T02:02:03.731Z,10.92
2018-10-19T02:03:04.238Z,10.97
2018-10-19T02:04:04.299Z,10.86
2018-10-19T02:05:05.258Z,10.95
2018-10-19T02:06:05.855Z,10.84
2018-10-19T02:07:07.206Z,10.87
2018-10-19T02:08:07.272Z,10.86
2018-10-19T02:09:09.682Z,10.89
2018-10-19T02:10:09.559Z,10.92
2018-10-19T02:11:10.979Z,10.82
2018-10-19T02:12:11.445Z,10.76
2018-10-19T02:13:11.810Z,10.64
2018-10-19T02:14:12.503Z,10.68
2018-10-19T02:15:14.207Z,10.62
2018-10-19T02:16:13.983Z,10.71
2018-10-19T02:17:16.653Z,10.72
2018-10-19T02:18:16.171Z,10.77
2018-10-19T02:19:17.242Z,10.76
2018-10-19T02:20:18.590Z,10.59
2018-10-19T02:21:18.662Z,10.69
2018-10-19T02:22:19.736Z,10.75
2018-10-19T02:23:20.096Z,10.71
2018-10-19T02:24:21.900Z,10.71
2018-10-19T02:25:22.139Z,10.83
2018-10-19T02:26:23.770Z,10.8
2018-10-19T02:27:24.120Z,10.72
2018-10-19T02:28:24.631Z,10.8
2018-10-19T02:29:25.705Z,10.8
2018-10-19T02:30:27.053Z,10.77
2018-10-19T02:31:27.743Z,10.77
2018-10-19T02:32:28.817Z,10.79
2018-10-19T02:33:29.720Z,10.77
2018-10-19T02:34:31.078Z,10.61
2018-10-19T02:35:31.869Z,10.68
2018-10-19T02:36:33.250Z,10.58
2018-10-19T02:37:34.164Z,10.55
2018-10-19T02:38:34.957Z,10.62
2018-10-19T02:39:35.749Z,10.58
2018-10-19T02:40:36.388Z,10.55
2018-10-19T02:41:37.734Z,10.51
2018-10-19T02:42:38.248Z,10.39
2018-10-19T02:43:39.598Z,10.46
2018-10-19T02:44:40.519Z,10.41
2018-10-19T02:45:40.324Z,10.38
2018-10-19T02:46:41.119Z,10.36
2018-10-19T02:47:41.632Z,10.38
2018-10-19T02:48:42.429Z,10.43
2018-10-19T02:49:43.221Z,10.34
2018-10-19T02:50:43.855Z,10.36
2018-10-19T02:51:44.646Z,10.42
2018-10-19T02:52:45.443Z,10.51
2018-10-19T02:53:46.960Z,10.34
2018-10-19T02:54:48.483Z,10.39
2018-10-19T02:55:49.829Z,10.41
2018-10-19T02:56:50.345Z,10.42
2018-10-19T02:57:51.417Z,10.43
2018-10-19T02:58:51.946Z,10.34
2018-10-19T02:59:52.890Z,10.27
2018-10-19T03:00:53.961Z,10.27
2018-10-19T03:01:54.485Z,10.27
2018-10-19T03:02:56.266Z,10.28
2018-10-19T03:03:56.018Z,10.25
2018-10-19T03:04:57.675Z,10.27
2018-10-19T03:05:57.562Z,10.3
2018-10-19T03:06:58.348Z,10.36
2018-10-19T03:07:59.973Z,10.34
2018-10-19T03:09:00.217Z,10.42
2018-10-19T03:10:00.775Z,10.36
2018-10-19T03:11:02.214Z,10.42
2018-10-19T03:12:02.937Z,10.23
2018-10-19T03:13:04.290Z,10.25
2018-10-19T03:14:04.921Z,10.2
2018-10-19T03:15:06.589Z,10.25
2018-10-19T03:16:06.907Z,10.24
2018-10-19T03:17:07.958Z,10.3
2018-10-19T03:18:08.673Z,10.27
2018-10-19T03:19:09.300Z,10.27
2018-10-19T03:20:09.927Z,10.24
2018-10-19T03:21:10.554Z,10.24
2018-10-19T03:22:11.616Z,10.28
2018-10-19T03:23:13.533Z,10.38
2018-10-19T03:24:14.239Z,10.41
2018-10-19T03:25:15.600Z,10.38
2018-10-19T03:26:16.230Z,10.42
2018-10-19T03:27:17.693Z,10.39
2018-10-19T03:28:17.285Z,10.36
2018-10-19T03:29:19.274Z,10.42
2018-10-19T03:30:19.756Z,10.36
2018-10-19T03:31:21.233Z,10.36
2018-10-19T03:32:21.618Z,10.43
2018-10-19T03:33:22.992Z,10.55
2018-10-19T03:34:23.336Z,10.39
2018-10-19T03:35:23.704Z,10.38
2018-10-19T03:36:24.782Z,10.3
2018-10-19T03:37:25.846Z,10.24
2018-10-19T03:38:26.752Z,10.21
2018-10-19T03:39:27.274Z,10.23
2018-10-19T03:40:28.623Z,10.1
2018-10-19T03:41:29.983Z,10.09
2018-10-19T03:42:30.053Z,10.1
2018-10-19T03:43:31.143Z,10.12
2018-10-19T03:44:32.050Z,10.03
2018-10-19T03:45:32.761Z,10.05
2018-10-19T03:46:33.585Z,10.02
2018-10-19T03:47:35.173Z,9.99
2018-10-19T03:48:35.809Z,10.03
2018-10-19T03:49:36.920Z,10
2018-10-19T03:50:36.995Z,10.12
2018-10-19T03:51:38.069Z,9.99
2018-10-19T03:52:39.420Z,9.88
2018-10-19T03:53:40.215Z,9.9
2018-10-19T03:54:41.283Z,9.95
2018-10-19T03:55:41.661Z,10.03
2018-10-19T03:56:42.454Z,9.88
2018-10-19T03:57:43.814Z,9.84
2018-10-19T03:58:44.884Z,9.91
2018-10-19T03:59:45.963Z,10.02
2018-10-19T04:00:46.309Z,10.18
2018-10-19T04:01:47.102Z,10.1
2018-10-19T04:02:48.453Z,10.12
2018-10-19T04:03:49.253Z,10.13
2018-10-19T04:04:49.492Z,10.18
2018-10-19T04:05:51.046Z,10.15
2018-10-19T04:06:51.949Z,10.15
2018-10-19T04:07:52.022Z,10.21
2018-10-19T04:08:54.240Z,10.18
2018-10-19T04:09:55.556Z,10.21
2018-10-19T04:10:56.432Z,10.25
2018-10-19T04:11:57.215Z,10.24
2018-10-19T04:12:57.283Z,10.13
2018-10-19T04:13:58.081Z,10.25
2018-10-19T04:14:59.950Z,10.13
2018-10-19T04:16:00.548Z,10.18
2018-10-19T04:17:02.117Z,10.15
2018-10-19T04:18:03.236Z,10.27
2018-10-19T04:19:03.748Z,10.2
2018-10-19T04:20:05.648Z,10.15
2018-10-19T04:21:05.845Z,10.1
2018-10-19T04:22:06.568Z,10.15
2018-10-19T04:23:08.683Z,10.12
2018-10-19T04:24:08.933Z,10.1
2018-10-19T04:25:10.004Z,10.06
2018-10-19T04:26:10.282Z,10.05
2018-10-19T04:27:11.470Z,9.92
2018-10-19T04:28:12.668Z,9.74
2018-10-19T04:29:14.091Z,9.72
2018-10-19T04:30:13.787Z,9.74
2018-10-19T04:31:15.137Z,9.69
2018-10-19T04:32:15.486Z,9.66
2018-10-19T04:33:15.770Z,9.52
2018-10-19T04:34:16.584Z,9.49
2018-10-19T04:35:18.519Z,9.29
2018-10-19T04:36:18.495Z,9.11
2018-10-19T04:37:19.875Z,9.09
2018-10-19T04:38:19.668Z,8.95
2018-10-19T04:39:21.021Z,8.97
2018-10-19T04:40:22.092Z,8.93
2018-10-19T04:41:23.139Z,9.03
2018-10-19T04:42:24.176Z,9.05
2018-10-19T04:43:25.334Z,9.13
2018-10-19T04:44:25.851Z,9.19
2018-10-19T04:45:26.638Z,9.11
2018-10-19T04:46:28.164Z,9.13
2018-10-19T04:47:29.345Z,9.16
2018-10-19T04:48:30.727Z,9.22
2018-10-19T04:49:31.071Z,9.19
2018-10-19T04:50:31.860Z,9.27
2018-10-19T04:51:33.487Z,9.27
2018-10-19T04:52:34.845Z,9.29
2018-10-19T04:53:36.471Z,9.24
2018-10-19T04:54:37.068Z,9.22
2018-10-19T04:55:37.583Z,9.21
2018-10-19T04:56:23.183Z,9.18
2018-10-19T04:57:23.640Z,9.24
2018-10-19T04:58:23.997Z,9.13
2018-10-19T04:59:25.349Z,9.18
2018-10-19T05:00:26.448Z,9.15
2018-10-19T05:01:27.237Z,9.15
2018-10-19T05:02:28.695Z,9.16
2018-10-19T05:03:28.828Z,9.11
2018-10-19T05:04:30.639Z,9.02
2018-10-19T05:05:31.040Z,9.12
2018-10-19T05:06:32.117Z,9.18
2018-10-19T05:07:32.473Z,9.18
2018-10-19T05:08:33.826Z,9.24
2018-10-19T05:09:33.891Z,9.19
2018-10-19T05:10:34.534Z,9.21
2018-10-19T05:11:35.606Z,9.33
2018-10-19T05:12:37.880Z,9.29
2018-10-19T05:13:38.750Z,9.33
2018-10-19T05:14:40.102Z,9.36
2018-10-19T05:15:40.174Z,9.29
2018-10-19T05:16:40.680Z,9.27
2018-10-19T05:17:41.646Z,9.3
2018-10-19T05:18:42.716Z,9.36
2018-10-19T05:19:44.057Z,9.16
2018-10-19T05:20:44.574Z,9.08
2018-10-19T05:21:45.925Z,8.99
2018-10-19T05:22:46.716Z,9.15
2018-10-19T05:23:47.517Z,9.19
2018-10-19T05:24:48.609Z,9.33
2018-10-19T05:25:48.905Z,9.22
2018-10-19T05:26:49.988Z,9.19
2018-10-19T05:27:51.370Z,9.26
2018-10-19T05:28:52.012Z,9.21
2018-10-19T05:29:52.771Z,9.24
2018-10-19T05:30:52.841Z,9.16
2018-10-19T05:31:53.660Z,9.26
2018-10-19T05:32:54.962Z,9.34
2018-10-19T05:33:55.163Z,9.19
2018-10-19T05:34:56.639Z,9.19
2018-10-19T05:35:56.462Z,9.21
2018-10-19T05:36:57.368Z,9.26
2018-10-19T05:37:58.929Z,9.19
2018-10-19T05:38:59.143Z,9.22
2018-10-19T05:40:00.564Z,9.26
2018-10-19T05:41:02.494Z,9.13
2018-10-19T05:42:03.254Z,9.29
2018-10-19T05:43:03.339Z,9.3
2018-10-19T05:44:04.977Z,9.29
2018-10-19T05:45:05.005Z,9.21
2018-10-19T05:46:06.082Z,9.22
2018-10-19T05:47:07.782Z,9.18
2018-10-19T05:48:07.671Z,9.08
2018-10-19T05:49:07.910Z,9.11
2018-10-19T05:50:10.491Z,9.09
2018-10-19T05:51:09.774Z,9.05
2018-10-19T05:52:11.923Z,9.24
2018-10-19T05:53:11.707Z,9.27
2018-10-19T05:54:12.829Z,9.3
2018-10-19T05:55:13.901Z,9.31
2018-10-19T05:56:15.808Z,9.33
2018-10-19T05:57:15.435Z,9.39
2018-10-19T05:58:16.427Z,9.4
2018-10-19T05:59:17.143Z,9.47
2018-10-19T06:00:17.574Z,9.4
2018-10-19T06:01:18.386Z,9.47
2018-10-19T06:02:21.062Z,9.4
2018-10-19T06:03:20.587Z,9.45
2018-10-19T06:04:21.214Z,9.49
2018-10-19T06:05:22.404Z,9.47
2018-10-19T06:06:23.251Z,9.26
2018-10-19T06:07:25.542Z,9.24
2018-10-19T06:08:24.729Z,9.33
2018-10-19T06:09:26.078Z,9.4
2018-10-19T06:10:26.317Z,9.31
2018-10-19T06:11:26.835Z,9.36
2018-10-19T06:12:27.633Z,9.4
2018-10-19T06:13:29.705Z,9.55
2018-10-19T06:14:30.235Z,9.56
2018-10-19T06:15:31.785Z,9.67
2018-10-19T06:16:32.628Z,9.64
2018-10-19T06:17:33.846Z,9.72
2018-10-19T06:18:34.860Z,9.74
2018-10-19T06:19:35.654Z,9.87
2018-10-19T06:20:36.729Z,9.95
2018-10-19T06:21:37.535Z,9.94
2018-10-19T06:22:38.335Z,9.95
2018-10-19T06:23:39.128Z,10.05
2018-10-19T06:24:39.649Z,10.06
2018-10-19T06:25:41.442Z,9.99
2018-10-19T06:26:42.185Z,10.03
2018-10-19T06:27:42.431Z,10.05
2018-10-19T06:28:43.538Z,10.07
2018-10-19T06:29:44.169Z,10.02
2018-10-19T06:30:44.962Z,10.07
2018-10-19T06:31:46.038Z,10.07
2018-10-19T06:32:46.944Z,10.09
2018-10-19T06:33:47.253Z,10.09
2018-10-19T06:34:48.289Z,10.18
2018-10-19T06:35:48.811Z,10.21
2018-10-19T06:36:49.888Z,10.25
2018-10-19T06:37:51.239Z,10.33
2018-10-19T06:38:51.655Z,10.25
2018-10-19T06:39:52.231Z,10.3
2018-10-19T06:40:54.896Z,10.24
2018-10-19T06:41:54.566Z,10.39
2018-10-19T06:42:55.640Z,10.34
2018-10-19T06:43:57.078Z,10.36
2018-10-19T06:44:57.283Z,10.36
2018-10-19T06:45:58.525Z,10.45
2018-10-19T06:46:59.713Z,10.48
2018-10-19T06:47:59.866Z,10.43
2018-10-19T06:49:01.492Z,10.49
2018-10-19T06:50:02.669Z,10.55
2018-10-19T06:51:03.318Z,10.48
2018-10-19T06:52:03.957Z,10.65
2018-10-19T06:53:05.125Z,10.67
2018-10-19T06:54:04.829Z,10.64
2018-10-19T06:55:06.184Z,10.58
2018-10-19T06:56:07.048Z,10.62
2018-10-19T06:57:07.868Z,10.69
2018-10-19T06:58:08.391Z,10.67
2018-10-19T06:59:11.685Z,10.69
2018-10-19T07:00:11.731Z,10.68
2018-10-19T07:01:13.098Z,10.8
2018-10-19T07:02:14.581Z,11
2018-10-19T07:03:14.627Z,11.3
2018-10-19T07:04:15.144Z,11.45
2018-10-19T07:05:16.621Z,11.7
2018-10-19T07:06:17.580Z,12.07
2018-10-19T07:07:17.390Z,12.14
2018-10-19T07:08:19.259Z,12.29
2018-10-19T07:09:19.408Z,12.21
2018-10-19T07:10:20.211Z,12.25
2018-10-19T07:11:21.737Z,12.37
2018-10-19T07:12:23.259Z,12.28
2018-10-19T07:13:23.783Z,12.05
2018-10-19T07:14:24.595Z,11.81
2018-10-19T07:15:25.397Z,11.77
2018-10-19T07:16:25.917Z,11.65
2018-10-19T07:17:28.137Z,11.65
2018-10-19T07:18:27.952Z,11.6
2018-10-19T07:19:28.414Z,11.51
2018-10-19T07:20:29.495Z,11.56
2018-10-19T07:21:30.976Z,11.58
2018-10-19T07:22:30.521Z,11.52
2018-10-19T07:23:32.321Z,11.6
2018-10-19T07:24:32.843Z,11.45
2018-10-19T07:25:34.645Z,11.53
2018-10-19T07:26:34.999Z,11.44
2018-10-19T07:27:36.150Z,11.41
2018-10-19T07:28:36.506Z,11.4
2018-10-19T07:29:37.582Z,11.41
2018-10-19T07:30:37.475Z,11.34
2018-10-19T07:31:38.275Z,11.35
2018-10-19T07:32:40.081Z,11.38
2018-10-19T07:33:41.162Z,11.38
2018-10-19T07:34:41.519Z,11.44
2018-10-19T07:35:42.327Z,11.52
2018-10-19T07:36:43.122Z,11.4
2018-10-19T07:37:43.922Z,11.49
2018-10-19T07:38:44.553Z,11.45
2018-10-19T07:39:44.839Z,11.52
2018-10-19T07:40:45.936Z,11.41
2018-10-19T07:41:46.868Z,11.33
2018-10-19T07:42:49.027Z,11.37
2018-10-19T07:43:48.613Z,11.38
2018-10-19T07:44:50.136Z,11.33
2018-10-19T07:45:51.324Z,11.49
2018-10-19T07:46:52.127Z,11.59
2018-10-19T07:47:55.566Z,11.58
2018-10-19T07:48:55.120Z,11.52
2018-10-19T07:49:56.498Z,11.63
2018-10-19T07:50:58.241Z,11.74
2018-10-19T07:51:58.592Z,11.83
2018-10-19T07:53:00.093Z,11.86
2018-10-19T07:54:00.130Z,11.95
2018-10-19T07:55:00.770Z,12.05
2018-10-19T07:56:02.694Z,12.15
2018-10-19T07:57:03.191Z,12.21
2018-10-19T07:58:04.550Z,12.32
2018-10-19T07:59:06.258Z,12.39
2018-10-19T08:00:07.001Z,12.55
2018-10-19T08:01:08.245Z,12.72
2018-10-19T08:02:09.858Z,12.87
2018-10-19T08:03:09.880Z,13.03
2018-10-19T08:04:10.405Z,12.99
2018-10-19T08:05:11.961Z,13.01
2018-10-19T08:06:12.734Z,13.01
2018-10-19T08:07:13.538Z,13.02
2018-10-19T08:08:15.069Z,13.06
2018-10-19T08:09:15.297Z,13.13
2018-10-19T08:10:16.271Z,13.16
2018-10-19T08:11:18.913Z,13.05
2018-10-19T08:12:18.664Z,12.95
2018-10-19T08:13:18.834Z,12.87
2018-10-19T08:14:21.443Z,12.9
2018-10-19T08:15:20.817Z,12.78
2018-10-19T08:16:21.342Z,12.86
2018-10-19T08:17:22.424Z,12.91
2018-10-19T08:18:22.670Z,12.9
2018-10-19T08:19:23.747Z,12.93
2018-10-19T08:20:23.763Z,12.78
2018-10-19T08:21:24.849Z,12.75
2018-10-19T08:22:25.647Z,12.76
2018-10-19T08:23:26.168Z,12.86
2018-10-19T08:24:27.244Z,12.81
2018-10-19T08:25:30.469Z,12.9
2018-10-19T08:26:29.001Z,13.01
2018-10-19T08:27:30.783Z,13.21
2018-10-19T08:28:30.910Z,13.42
2018-10-19T08:29:30.712Z,13.61
2018-10-19T08:30:31.691Z,13.86
2018-10-19T08:31:33.214Z,13.87
2018-10-19T08:32:34.571Z,13.86
2018-10-19T08:33:35.656Z,13.78
2018-10-19T08:34:36.733Z,13.8
2018-10-19T08:35:37.811Z,13.82
2018-10-19T08:36:38.892Z,13.89
2018-10-19T08:37:39.510Z,14.03
2018-10-19T08:38:39.893Z,14.03
2018-10-19T08:39:40.437Z,13.85
2018-10-19T08:40:42.253Z,13.85
2018-10-19T08:41:43.490Z,14.03
2018-10-19T08:42:42.644Z,14.13
2018-10-19T08:43:43.169Z,14.16
2018-10-19T08:44:43.973Z,14.16
2018-10-19T08:45:45.801Z,14.16
2018-10-19T08:46:45.867Z,14.31
2018-10-19T08:47:47.136Z,14.31
2018-10-19T08:48:47.220Z,14.31
2018-10-19T08:49:49.302Z,14.15
2018-10-19T08:50:50.690Z,14.05
2018-10-19T08:51:51.047Z,13.93
2018-10-19T08:52:51.402Z,13.83
2018-10-19T08:53:52.629Z,13.89
2018-10-19T08:54:54.162Z,13.87
2018-10-19T08:55:54.668Z,13.86
2018-10-19T08:56:56.230Z,14.03
2018-10-19T08:57:57.787Z,14.08
2018-10-19T08:58:58.687Z,14.43
2018-10-19T08:59:59.726Z,14.56
2018-10-19T09:00:59.803Z,14.93
2018-10-19T09:02:00.609Z,15.15
2018-10-19T09:03:02.794Z,15.18
2018-10-19T09:04:04.082Z,15.22
2018-10-19T09:05:04.585Z,15.14
2018-10-19T09:06:06.191Z,15.25
2018-10-19T09:07:06.444Z,15.32
2018-10-19T09:08:08.408Z,15.26
2018-10-19T09:09:07.676Z,15.27
2018-10-19T09:10:08.360Z,15.25
2018-10-19T09:11:10.229Z,15.3
2018-10-19T09:12:10.773Z,15.5
2018-10-19T09:13:11.573Z,15.54
2018-10-19T09:14:12.653Z,15.6
2018-10-19T09:15:14.935Z,15.67
2018-10-19T09:16:15.321Z,15.6
2018-10-19T09:17:17.722Z,15.3
2018-10-19T09:18:17.462Z,15.17
2018-10-19T09:19:18.866Z,15.12
2018-10-19T09:20:20.262Z,15.18
2018-10-19T09:21:20.174Z,15.26
2018-10-19T09:22:21.254Z,15.26
2018-10-19T09:23:22.336Z,15.39
2018-10-19T09:24:22.860Z,15.44
2018-10-19T09:25:23.948Z,15.36
2018-10-19T09:26:25.031Z,15.41
2018-10-19T09:27:25.836Z,15.52
2018-10-19T09:28:26.190Z,15.55
2018-10-19T09:29:27.540Z,15.51
2018-10-19T09:30:27.508Z,15.39
2018-10-19T09:31:28.349Z,15.51
2018-10-19T09:32:28.711Z,15.45
2018-10-19T09:33:30.627Z,15.57
2018-10-19T09:34:31.153Z,15.59
2018-10-19T09:35:32.566Z,15.44
2018-10-19T09:36:35.648Z,15.41
2018-10-19T09:37:34.523Z,15.25
2018-10-19T09:38:35.047Z,15.26
2018-10-19T09:39:35.572Z,15.22
2018-10-19T09:40:37.097Z,15.27
2018-10-19T09:41:38.047Z,15.36
2018-10-19T09:42:39.733Z,15.3
2018-10-19T09:43:39.650Z,15.51
2018-10-19T09:44:40.176Z,15.29
2018-10-19T09:45:40.931Z,15.41
2018-10-19T09:46:41.322Z,15.44
2018-10-19T09:47:42.264Z,15.36
2018-10-19T09:48:43.340Z,15.27
2018-10-19T09:49:43.591Z,15.3
2018-10-19T09:50:44.676Z,15.43
2018-10-19T09:51:45.512Z,15.48
2018-10-19T09:52:46.594Z,15.6
2018-10-19T09:53:47.956Z,15.75
2018-10-19T09:54:49.771Z,15.8
2018-10-19T09:55:52.660Z,16.08
2018-10-19T09:56:02.323Z,16.17
2018-10-19T09:57:04.440Z,16.62
2018-10-19T09:58:04.696Z,17.01
2018-10-19T09:59:05.622Z,17.39
2018-10-19T10:00:06.202Z,17.8
2018-10-19T10:01:06.893Z,17.98
2018-10-19T10:02:09.246Z,18.12
2018-10-19T10:03:10.616Z,18.41
2018-10-19T10:04:10.986Z,18.64
2018-10-19T10:05:14.030Z,19.04
2018-10-19T10:06:14.323Z,19.29
2018-10-19T10:07:15.757Z,19.27
2018-10-19T10:08:15.971Z,19.49
2018-10-19T10:09:20.058Z,19.6
2018-10-19T10:10:18.340Z,19.74
2018-10-19T10:11:19.785Z,19.55
2018-10-19T10:12:20.452Z,19.72
2018-10-19T10:13:20.985Z,19.6
2018-10-19T10:14:21.795Z,19.7
2018-10-19T10:15:23.436Z,19.77
2018-10-19T10:16:23.970Z,19.93
2018-10-19T10:17:24.780Z,20.02
2018-10-19T10:18:25.871Z,20.34
2018-10-19T10:19:26.704Z,20.26
2018-10-19T10:20:27.510Z,20.26
2018-10-19T10:21:28.598Z,20.22
2018-10-19T10:22:29.687Z,20.36
2018-10-19T10:23:30.428Z,20.56
2018-10-19T10:24:31.874Z,20.8
2018-10-19T10:25:33.525Z,20.93
2018-10-19T10:26:34.332Z,20.95
2018-10-19T10:27:35.437Z,21.2
2018-10-19T10:28:36.328Z,21.29
2018-10-19T10:29:36.860Z,21.11
2018-10-19T10:30:37.403Z,21
2018-10-19T10:31:38.765Z,20.88
2018-10-19T10:32:39.582Z,20.7
2018-10-19T10:33:41.112Z,20.44
2018-10-19T10:34:42.927Z,20.58
2018-10-19T10:35:44.019Z,20.5
2018-10-19T10:36:44.674Z,20.37
2018-10-19T10:37:44.714Z,20.37
2018-10-19T10:38:46.290Z,20.66
2018-10-19T10:39:46.316Z,20.74
2018-10-19T10:40:47.129Z,20.71
2018-10-19T10:41:48.216Z,20.58
2018-10-19T10:42:48.583Z,20.52
2018-10-19T10:43:48.671Z,20.36
2018-10-19T10:44:50.313Z,20.34
2018-10-19T10:45:51.403Z,20.29
2018-10-19T10:46:52.472Z,20.22
2018-10-19T10:47:53.132Z,20.15
2018-10-19T10:48:54.324Z,20.1
2018-10-19T10:49:55.053Z,20.15
2018-10-19T10:50:55.862Z,20.03
2018-10-19T10:51:57.762Z,20.02
2018-10-19T10:52:58.301Z,20.11
2018-10-19T10:53:58.829Z,20.15
2018-10-19T10:55:00.309Z,20.19
2018-10-19T10:56:00.850Z,20.27
2018-10-19T10:57:01.378Z,20.36
2018-10-19T10:58:02.434Z,20.39
2018-10-19T10:59:03.315Z,20.22
2018-10-19T11:00:03.680Z,20.17
2018-10-19T11:01:05.697Z,20.17
2018-10-19T11:02:06.632Z,20.17
2018-10-19T11:03:07.440Z,20.3
2018-10-19T11:04:08.351Z,20.24
2018-10-19T11:05:08.637Z,20.14
2018-10-19T11:06:10.002Z,20.29
2018-10-19T11:07:11.433Z,20.3
2018-10-19T11:08:12.313Z,20.37
2018-10-19T11:09:12.418Z,20.4
2018-10-19T11:10:14.113Z,20.4
2018-10-19T11:11:14.822Z,20.36
2018-10-19T11:12:15.911Z,20.34
2018-10-19T11:13:16.717Z,20.34
2018-10-19T11:14:18.089Z,20.34
2018-10-19T11:15:17.892Z,20.27
2018-10-19T11:16:19.264Z,20.33
2018-10-19T11:17:20.533Z,20.39
2018-10-19T11:18:21.450Z,20.37
2018-10-19T11:19:22.272Z,20.3
2018-10-19T11:20:22.809Z,20.24
2018-10-19T11:21:27.297Z,20.37
2018-10-19T11:21:37.821Z,20.37
2018-10-19T11:22:35.879Z,20.4
2018-10-19T11:23:36.516Z,20.52
2018-10-19T11:24:37.323Z,20.39
2018-10-19T11:25:38.088Z,20.48
2018-10-19T11:26:39.172Z,20.39
2018-10-19T11:27:39.979Z,20.39
2018-10-19T11:28:44.267Z,20.3
2018-10-19T11:28:53.118Z,20.24
2018-10-19T11:29:54.106Z,20.17
2018-10-19T11:30:54.730Z,20.03
2018-10-19T11:31:56.212Z,19.96
2018-10-19T11:32:56.317Z,20
2018-10-19T11:33:58.233Z,19.92
2018-10-19T11:34:59.652Z,19.93
2018-10-19T11:36:00.028Z,19.77
2018-10-19T11:37:00.184Z,19.81
2018-10-19T11:38:01.480Z,19.66
2018-10-19T11:39:02.317Z,19.49
2018-10-19T11:40:04.892Z,19.41
2018-10-19T11:41:05.455Z,19.48
2018-10-19T11:42:06.098Z,19.62
2018-10-19T11:43:08.023Z,19.78
2018-10-19T11:44:07.135Z,19.78
2018-10-19T11:45:08.227Z,19.74
2018-10-19T11:46:09.936Z,19.96
2018-10-19T11:47:09.943Z,19.97
2018-10-19T11:48:11.038Z,19.99
2018-10-19T11:49:12.412Z,20.03
2018-10-19T11:50:12.833Z,20.04
2018-10-19T11:51:13.916Z,20.11
2018-10-19T11:52:15.316Z,20.21
2018-10-19T11:53:14.821Z,20.36
2018-10-19T11:54:15.624Z,20.42
2018-10-19T11:55:16.677Z,20.48
2018-10-19T11:56:17.498Z,20.52
2018-10-19T11:57:18.303Z,20.52
2018-10-19T11:58:20.015Z,20.6
2018-10-19T11:59:19.825Z,20.71
2018-10-19T12:00:20.805Z,20.82
2018-10-19T12:01:21.617Z,20.92
2018-10-19T12:02:22.699Z,20.98
2018-10-19T12:03:24.075Z,21.05
2018-10-19T12:04:24.518Z,20.89
2018-10-19T12:05:25.879Z,20.68
2018-10-19T12:06:25.690Z,20.7
2018-10-19T12:07:28.837Z,20.59
2018-10-19T12:08:29.069Z,20.63
2018-10-19T12:09:29.878Z,20.67
2018-10-19T12:10:31.037Z,20.64
2018-10-19T12:11:31.168Z,20.7
2018-10-19T12:12:31.694Z,20.8
2018-10-19T12:13:33.229Z,20.71
2018-10-19T12:14:34.034Z,20.42
2018-10-19T12:15:35.114Z,20.34
2018-10-19T12:16:37.966Z,20.4
2018-10-19T12:17:38.392Z,20.56
2018-10-19T12:18:40.517Z,20.5
2018-10-19T12:19:41.323Z,20.64
2018-10-19T12:20:42.641Z,20.68
2018-10-19T12:21:42.822Z,20.83
2018-10-19T12:22:43.192Z,20.93
2018-10-19T12:23:44.003Z,21.05
2018-10-19T12:24:45.376Z,21.03
2018-10-19T12:25:47.032Z,20.98
2018-10-19T12:26:47.174Z,20.95
2018-10-19T12:27:47.263Z,21.14
2018-10-19T12:28:48.349Z,21.13
2018-10-19T12:29:49.151Z,21.03
2018-10-19T12:30:50.414Z,20.95
2018-10-19T12:31:53.378Z,21.11
2018-10-19T12:32:53.396Z,21.29
2018-10-19T12:33:05.907Z,21.3
2018-10-19T12:34:04.410Z,21.44
2018-10-19T12:35:05.058Z,21.63
2018-10-19T12:36:06.015Z,21.6
2018-10-19T12:37:06.912Z,21.63
2018-10-19T12:38:09.562Z,21.7
2018-10-19T12:39:12.206Z,21.69
2018-10-19T12:39:21.889Z,21.75
2018-10-19T12:40:26.565Z,21.7
2018-10-19T12:40:37.410Z,21.77
2018-10-19T12:41:40.191Z,21.77
2018-10-19T12:41:51.352Z,21.85
2018-10-19T12:42:03.637Z,21.8
2018-10-19T12:42:15.500Z,21.84
2018-10-19T12:42:27.698Z,21.84
2018-10-19T12:42:40.075Z,21.97
2018-10-19T12:42:51.498Z,21.92
2018-10-19T12:43:03.365Z,21.85
2018-10-19T12:43:15.841Z,21.84
2018-10-19T12:43:27.266Z,21.91
2018-10-19T12:44:26.009Z,22.03
2018-10-19T12:45:27.095Z,22.03
2018-10-19T12:46:28.184Z,21.97
2018-10-19T12:47:30.945Z,21.97
2018-10-19T12:47:40.701Z,21.96
2018-10-19T12:48:41.571Z,21.84
2018-10-19T12:49:42.098Z,21.88
2018-10-19T12:50:42.626Z,21.65
2018-10-19T12:51:44.503Z,21.66
2018-10-19T12:52:43.461Z,21.56
2018-10-19T12:53:44.998Z,21.48
2018-10-19T12:54:45.501Z,21.4
2018-10-19T12:55:46.587Z,21.35
2018-10-19T12:56:47.956Z,21.53
2018-10-19T12:57:48.479Z,21.28